Cloudcroft, New Mexico
Current Conditions -  °F | °C
As of 9:15 AM on Wednesday 26 Nov 2014 (Local Time) from KALM Reporting Station
Clear Clear  
Wind Chill: 34°   Ceiling: Unl
Heat Index: 39°   Visibility: 10mi
Dew Point:   Wind: 7mph
Humidity: 28%   Direction: 150°SSE
Pressure: 30.37"   Gusts: NA
Location:  32.96°N, 105.74°W
Report Text: KALM 261615Z AUTO 15006KT 10SM CLR 04/M13 A3037 RMK AO2
Loading
Personal Weather Stations






























Interactive Weather Map New forecast layout! Learn more

10-Day Weather Forecast

Advertisements
Track Severe Weather on mobile